La Mesa, CA (91943)

6:43 AM PDT on August 29, 2015 (GMT -0700)
Lake Murray Estates | | Change Station
CLOSE
Current Station
Personal Weather Station
Location: La Mesa, CA
Elevation: 617 ft
Nearby Weather Stations

Elev 617 ft 32.78 °N, 117.02 °W | Updated 16 seconds ago

Clear
Clear
70.3 °F
Feels Like 70.3 °F
N
0.0
Wind Variable Wind from NNE
Gusts 0.0 mph

Today
High -- | Low -- °F
--% Chance of Precip.
Yesterday
High -- | Low -- °F
Precip. -- in
6:20 AM 7:16 PM
Full, 100% visible
Pressure 29.90 in
Visibility 10.0 miles
Clouds Clear
Dew Point 67 °F
Humidity 88%
Rainfall 0.00 in
Snow Depth Not available.
UV 0 out of 12
Pollen 5.50 out of 12
Air Quality Not available.
Flu Activity Not available.
METAR KSEE 291335Z AUTO 00000KT 10SM CLR 21/14 A2990 RMK AO2
Pressure 29.90 in
Visibility 10.0 miles
Clouds Clear
Dew Point 67 °F
Humidity 88%
Rainfall 0.00 in
Snow Depth Not available.
UV 0 out of 12
Pollen 5.50 out of 12
Air Quality Not available.
Flu Activity Not available.
METAR KSEE 291335Z AUTO 00000KT 10SM CLR 21/14 A2990 RMK AO2

10-Day Weather Forecast

×

Almanac

Astronomy

Aug. 29, 2015 Rise Set
Actual Time
Civil Twilight
Nautical Twilight
Astronomical Twilight
Moon
Length of Visible Light
Length of Day
Tomorrow will be .
, % of the Moon is Illuminated

Today's Extremes

State Highs State Lows

Community

WunderPhotos

Upload Photos

1,850,686 photos uploaded!

WunderBlogs® & News

Nearby

Air Quality

  Air Quality AQ Index Pollutant
Not available.

Snow Depth

Station Depth Elevation

Earthquake Activity

City Distance Mag. Time & Date
Minimum magnitude displayed is 2.5.

Coastal Water Temperatures

Place Temperature

Stations

Nearby Weather Stations

Station Location Temp. Windchill Dew Point Humidity Wind Precip. Elev Updated Type